sensor_id;sensor_type;location;lat;lon;timestamp;temperature;humidity
50736;DHT22;36702;50.892;20.648;2022-07-17T00:35:16;22;74
50736;DHT22;36702;50.892;20.648;2022-07-17T00:42:21;22;74
50736;DHT22;36702;50.892;20.648;2022-07-17T00:49:04;22;74
50736;DHT22;36702;50.892;20.648;2022-07-17T00:56:07;22;74
50736;DHT22;36702;50.892;20.648;2022-07-17T01:00:03;22;74
50736;DHT22;36702;50.892;20.648;2022-07-17T01:07:08;22;75
50736;DHT22;36702;50.892;20.648;2022-07-17T01:14:08;22;75
50736;DHT22;36702;50.892;20.648;2022-07-17T01:21:19;22;75
50736;DHT22;36702;50.892;20.648;2022-07-17T01:28:20;22;75
50736;DHT22;36702;50.892;20.648;2022-07-17T01:35:16;22;75
50736;DHT22;36702;50.892;20.648;2022-07-17T01:42:06;22;75
50736;DHT22;36702;50.892;20.648;2022-07-17T01:49:02;22;75
50736;DHT22;36702;50.892;20.648;2022-07-17T01:56:02;22;75
50736;DHT22;36702;50.892;20.648;2022-07-17T02:00:37;22;75
50736;DHT22;36702;50.892;20.648;2022-07-17T02:07:08;22;77
50736;DHT22;36702;50.892;20.648;2022-07-17T02:14:04;22;77
50736;DHT22;36702;50.892;20.648;2022-07-17T02:21:16;22;77
50736;DHT22;36702;50.892;20.648;2022-07-17T02:28:03;22;77
50736;DHT22;36702;50.892;20.648;2022-07-17T02:35:24;22;77
50736;DHT22;36702;50.892;20.648;2022-07-17T02:42:02;22;77
50736;DHT22;36702;50.892;20.648;2022-07-17T02:49:03;22;77
50736;DHT22;36702;50.892;20.648;2022-07-17T02:56:13;22;77
50736;DHT22;36702;50.892;20.648;2022-07-17T03:00:17;22;77
50736;DHT22;36702;50.892;20.648;2022-07-17T03:07:05;24;85
50736;DHT22;36702;50.892;20.648;2022-07-17T03:14:17;24;85
50736;DHT22;36702;50.892;20.648;2022-07-17T03:21:07;24;85
50736;DHT22;36702;50.892;20.648;2022-07-17T03:28:03;24;85
50736;DHT22;36702;50.892;20.648;2022-07-17T03:35:05;24;84
50736;DHT22;36702;50.892;20.648;2022-07-17T03:42:17;24;84
50736;DHT22;36702;50.892;20.648;2022-07-17T03:49:24;24;84
50736;DHT22;36702;50.892;20.648;2022-07-17T03:56:19;24;84
50736;DHT22;36702;50.892;20.648;2022-07-17T04:00:15;24;84
50736;DHT22;36702;50.892;20.648;2022-07-17T04:07:04;23;86
50736;DHT22;36702;50.892;20.648;2022-07-17T04:14:04;23;86
50736;DHT22;36702;50.892;20.648;2022-07-17T04:21:14;23;86
50736;DHT22;36702;50.892;20.648;2022-07-17T04:28:04;23;86
50736;DHT22;36702;50.892;20.648;2022-07-17T04:35:06;23;87
50736;DHT22;36702;50.892;20.648;2022-07-17T04:42:16;23;87
50736;DHT22;36702;50.892;20.648;2022-07-17T04:49:21;23;87
50736;DHT22;36702;50.892;20.648;2022-07-17T04:56:16;23;87
50736;DHT22;36702;50.892;20.648;2022-07-17T05:00:02;23;87
50736;DHT22;36702;50.892;20.648;2022-07-17T05:07:18;23;89
50736;DHT22;36702;50.892;20.648;2022-07-17T05:14:04;23;89
50736;DHT22;36702;50.892;20.648;2022-07-17T05:21:02;23;89
50736;DHT22;36702;50.892;20.648;2022-07-17T05:28:17;23;89
50736;DHT22;36702;50.892;20.648;2022-07-17T05:35:04;23;90
50736;DHT22;36702;50.892;20.648;2022-07-17T05:42:19;23;90
50736;DHT22;36702;50.892;20.648;2022-07-17T05:49:06;23;90
50736;DHT22;36702;50.892;20.648;2022-07-17T05:56:09;23;90
50736;DHT22;36702;50.892;20.648;2022-07-17T06:00:05;23;90
50736;DHT22;36702;50.892;20.648;2022-07-17T06:07:16;23;91
50736;DHT22;36702;50.892;20.648;2022-07-17T06:14:13;23;91
50736;DHT22;36702;50.892;20.648;2022-07-17T06:21:02;23;91
50736;DHT22;36702;50.892;20.648;2022-07-17T06:28:13;23;91
50736;DHT22;36702;50.892;20.648;2022-07-17T06:35:12;23;90
50736;DHT22;36702;50.892;20.648;2022-07-17T06:42:05;23;90
50736;DHT22;36702;50.892;20.648;2022-07-17T06:49:19;23;90
50736;DHT22;36702;50.892;20.648;2022-07-17T06:56:20;23;90
50736;DHT22;36702;50.892;20.648;2022-07-17T07:00:11;23;90
50736;DHT22;36702;50.892;20.648;2022-07-17T07:07:17;23;90
50736;DHT22;36702;50.892;20.648;2022-07-17T07:14:21;23;90
50736;DHT22;36702;50.892;20.648;2022-07-17T07:21:03;23;90
50736;DHT22;36702;50.892;20.648;2022-07-17T07:28:19;23;90
50736;DHT22;36702;50.892;20.648;2022-07-17T07:35:04;23;90
50736;DHT22;36702;50.892;20.648;2022-07-17T07:42:03;23;90
50736;DHT22;36702;50.892;20.648;2022-07-17T07:49:04;23;90
50736;DHT22;36702;50.892;20.648;2022-07-17T07:56:13;23;90
50736;DHT22;36702;50.892;20.648;2022-07-17T08:00:20;23;90
50736;DHT22;36702;50.892;20.648;2022-07-17T08:14:05;23;90
50736;DHT22;36702;50.892;20.648;2022-07-17T08:21:16;23;90
50736;DHT22;36702;50.892;20.648;2022-07-17T08:28:05;23;90
50736;DHT22;36702;50.892;20.648;2022-07-17T08:42:16;23;90
50736;DHT22;36702;50.892;20.648;2022-07-17T08:49:35;23;90
50736;DHT22;36702;50.892;20.648;2022-07-17T08:56:21;23;90
50736;DHT22;36702;50.892;20.648;2022-07-17T09:00:23;23;90
50736;DHT22;36702;50.892;20.648;2022-07-17T09:14:02;22;91
50736;DHT22;36702;50.892;20.648;2022-07-17T09:21:23;22;91
50736;DHT22;36702;50.892;20.648;2022-07-17T09:28:09;22;91
50736;DHT22;36702;50.892;20.648;2022-07-17T09:35:17;22;91
50736;DHT22;36702;50.892;20.648;2022-07-17T09:42:21;22;91
50736;DHT22;36702;50.892;20.648;2022-07-17T09:49:18;22;91
50736;DHT22;36702;50.892;20.648;2022-07-17T09:56:40;22;91
50736;DHT22;36702;50.892;20.648;2022-07-17T10:00:19;22;91
50736;DHT22;36702;50.892;20.648;2022-07-17T10:14:15;22;91
50736;DHT22;36702;50.892;20.648;2022-07-17T10:21:28;22;91
50736;DHT22;36702;50.892;20.648;2022-07-17T10:28:14;22;91
50736;DHT22;36702;50.892;20.648;2022-07-17T10:35:08;22;91
50736;DHT22;36702;50.892;20.648;2022-07-17T10:42:14;22;92
50736;DHT22;36702;50.892;20.648;2022-07-17T10:49:18;22;92
50736;DHT22;36702;50.892;20.648;2022-07-17T10:56:22;22;92
50736;DHT22;36702;50.892;20.648;2022-07-17T11:00:03;22;92
50736;DHT22;36702;50.892;20.648;2022-07-17T11:14:31;22;92
50736;DHT22;36702;50.892;20.648;2022-07-17T11:21:18;22;92
50736;DHT22;36702;50.892;20.648;2022-07-17T11:28:36;22;92
50736;DHT22;36702;50.892;20.648;2022-07-17T11:35:19;22;92
50736;DHT22;36702;50.892;20.648;2022-07-17T11:42:07;22;93
50736;DHT22;36702;50.892;20.648;2022-07-17T11:49:04;22;93
50736;DHT22;36702;50.892;20.648;2022-07-17T11:56:23;22;93
50736;DHT22;36702;50.892;20.648;2022-07-17T12:00:26;22;93
50736;DHT22;36702;50.892;20.648;2022-07-17T12:14:20;22;93
50736;DHT22;36702;50.892;20.648;2022-07-17T12:21:08;22;93
50736;DHT22;36702;50.892;20.648;2022-07-17T12:28:15;22;93
50736;DHT22;36702;50.892;20.648;2022-07-17T12:35:16;22;93
50736;DHT22;36702;50.892;20.648;2022-07-17T12:42:20;22;92
50736;DHT22;36702;50.892;20.648;2022-07-17T12:49:18;22;92
50736;DHT22;36702;50.892;20.648;2022-07-17T12:56:23;22;92
50736;DHT22;36702;50.892;20.648;2022-07-17T13:00:05;22;92
50736;DHT22;36702;50.892;20.648;2022-07-17T13:14:02;23;90
50736;DHT22;36702;50.892;20.648;2022-07-17T13:21:18;23;90
50736;DHT22;36702;50.892;20.648;2022-07-17T13:28:29;23;90
50736;DHT22;36702;50.892;20.648;2022-07-17T13:35:20;23;90
50736;DHT22;36702;50.892;20.648;2022-07-17T13:42:13;23;91
50736;DHT22;36702;50.892;20.648;2022-07-17T13:49:02;23;91
50736;DHT22;36702;50.892;20.648;2022-07-17T13:56:02;23;91
50736;DHT22;36702;50.892;20.648;2022-07-17T14:00:32;23;91
50736;DHT22;36702;50.892;20.648;2022-07-17T14:07:02;23;91
50736;DHT22;36702;50.892;20.648;2022-07-17T14:14:04;21;97
50736;DHT22;36702;50.892;20.648;2022-07-17T14:21:18;21;97
50736;DHT22;36702;50.892;20.648;2022-07-17T14:28:18;21;97
50736;DHT22;36702;50.892;20.648;2022-07-17T14:35:10;21;97
50736;DHT22;36702;50.892;20.648;2022-07-17T14:42:02;21;97
50736;DHT22;36702;50.892;20.648;2022-07-17T14:49:02;21;97
50736;DHT22;36702;50.892;20.648;2022-07-17T14:56:16;21;97
50736;DHT22;36702;50.892;20.648;2022-07-17T15:00:02;21;97
50736;DHT22;36702;50.892;20.648;2022-07-17T15:07:08;21;97
50736;DHT22;36702;50.892;20.648;2022-07-17T18:21:05;23;97
50736;DHT22;36702;50.892;20.648;2022-07-17T18:28:07;23;97
50736;DHT22;36702;50.892;20.648;2022-07-17T18:35:11;23;97
50736;DHT22;36702;50.892;20.648;2022-07-17T18:49:21;23;97
50736;DHT22;36702;50.892;20.648;2022-07-17T18:56:05;23;97
50736;DHT22;36702;50.892;20.648;2022-07-17T19:00:17;23;97
50736;DHT22;36702;50.892;20.648;2022-07-17T19:07:07;23;97
50736;DHT22;36702;50.892;20.648;2022-07-17T19:21:02;23;94
50736;DHT22;36702;50.892;20.648;2022-07-17T19:28:12;23;94
50736;DHT22;36702;50.892;20.648;2022-07-17T19:35:09;23;94
50736;DHT22;36702;50.892;20.648;2022-07-17T19:49:19;23;94
50736;DHT22;36702;50.892;20.648;2022-07-17T19:56:02;23;94
50736;DHT22;36702;50.892;20.648;2022-07-17T20:00:03;23;94
50736;DHT22;36702;50.892;20.648;2022-07-17T20:07:14;23;94
50736;DHT22;36702;50.892;20.648;2022-07-17T20:21:15;22;92
50736;DHT22;36702;50.892;20.648;2022-07-17T20:28:04;22;92
50736;DHT22;36702;50.892;20.648;2022-07-17T20:35:06;22;92
50736;DHT22;36702;50.892;20.648;2022-07-17T20:49:17;22;92
50736;DHT22;36702;50.892;20.648;2022-07-17T20:56:03;22;92
50736;DHT22;36702;50.892;20.648;2022-07-17T21:00:27;22;92
50736;DHT22;36702;50.892;20.648;2022-07-17T21:07:17;22;92
50736;DHT22;36702;50.892;20.648;2022-07-17T21:21:13;22;92
50736;DHT22;36702;50.892;20.648;2022-07-17T21:28:03;22;92
50736;DHT22;36702;50.892;20.648;2022-07-17T21:35:07;22;92
50736;DHT22;36702;50.892;20.648;2022-07-17T21:49:20;23;92
50736;DHT22;36702;50.892;20.648;2022-07-17T21:56:18;23;92
50736;DHT22;36702;50.892;20.648;2022-07-17T22:00:21;23;92
50736;DHT22;36702;50.892;20.648;2022-07-17T22:07:04;23;92
50736;DHT22;36702;50.892;20.648;2022-07-17T22:14:05;23;92
50736;DHT22;36702;50.892;20.648;2022-07-17T22:21:25;23;92
50736;DHT22;36702;50.892;20.648;2022-07-17T22:28:02;23;92
50736;DHT22;36702;50.892;20.648;2022-07-17T22:35:21;23;93
50736;DHT22;36702;50.892;20.648;2022-07-17T22:42:11;23;93
50736;DHT22;36702;50.892;20.648;2022-07-17T22:49:19;23;93
50736;DHT22;36702;50.892;20.648;2022-07-17T22:56:17;23;93
50736;DHT22;36702;50.892;20.648;2022-07-17T23:00:13;23;93
50736;DHT22;36702;50.892;20.648;2022-07-17T23:07:06;23;94
50736;DHT22;36702;50.892;20.648;2022-07-17T23:14:19;23;94
50736;DHT22;36702;50.892;20.648;2022-07-17T23:21:13;23;94
50736;DHT22;36702;50.892;20.648;2022-07-17T23:28:09;23;94
50736;DHT22;36702;50.892;20.648;2022-07-17T23:35:08;23;94
50736;DHT22;36702;50.892;20.648;2022-07-17T23:42:03;23;94
50736;DHT22;36702;50.892;20.648;2022-07-17T23:49:04;23;94
50736;DHT22;36702;50.892;20.648;2022-07-17T23:56:05;23;94
